sensor_id;sensor_type;location;lat;lon;timestamp;P1;durP1;ratioP1;P2;durP2;ratioP2
3979;SDS011;2004;52.452;13.120;2023-05-10T00:05:17;5.20;;;3.97;;
3979;SDS011;2004;52.452;13.120;2023-05-10T00:13:08;8.07;;;4.47;;
3979;SDS011;2004;52.452;13.120;2023-05-10T00:20:58;5.20;;;4.70;;
3979;SDS011;2004;52.452;13.120;2023-05-10T00:28:49;8.90;;;4.70;;
3979;SDS011;2004;52.452;13.120;2023-05-10T00:36:39;5.63;;;4.80;;
3979;SDS011;2004;52.452;13.120;2023-05-10T00:44:30;14.97;;;5.10;;
3979;SDS011;2004;52.452;13.120;2023-05-10T00:52:21;7.63;;;5.13;;
3979;SDS011;2004;52.452;13.120;2023-05-10T01:00:13;11.60;;;6.10;;
3979;SDS011;2004;52.452;13.120;2023-05-10T01:08:08;15.30;;;4.70;;
3979;SDS011;2004;52.452;13.120;2023-05-10T01:15:59;7.13;;;5.00;;
3979;SDS011;2004;52.452;13.120;2023-05-10T01:40:31;6.60;;;4.97;;
3979;SDS011;2004;52.452;13.120;2023-05-10T01:48:27;11.67;;;5.63;;
3979;SDS011;2004;52.452;13.120;2023-05-10T01:56:19;7.80;;;5.77;;
3979;SDS011;2004;52.452;13.120;2023-05-10T02:04:14;5.93;;;5.33;;
3979;SDS011;2004;52.452;13.120;2023-05-10T02:12:07;8.57;;;5.67;;
3979;SDS011;2004;52.452;13.120;2023-05-10T02:19:59;6.20;;;5.60;;
3979;SDS011;2004;52.452;13.120;2023-05-10T02:27:51;8.77;;;5.77;;
3979;SDS011;2004;52.452;13.120;2023-05-10T02:35:46;6.50;;;5.50;;
3979;SDS011;2004;52.452;13.120;2023-05-10T02:43:36;9.33;;;5.90;;
3979;SDS011;2004;52.452;13.120;2023-05-10T02:51:30;6.40;;;5.20;;
3979;SDS011;2004;52.452;13.120;2023-05-10T02:59:23;8.30;;;5.67;;
3979;SDS011;2004;52.452;13.120;2023-05-10T03:07:14;5.80;;;5.17;;
3979;SDS011;2004;52.452;13.120;2023-05-10T03:15:11;8.30;;;5.60;;
3979;SDS011;2004;52.452;13.120;2023-05-10T03:23:11;7.27;;;6.03;;
3979;SDS011;2004;52.452;13.120;2023-05-10T03:31:08;6.70;;;5.57;;
3979;SDS011;2004;52.452;13.120;2023-05-10T03:39:00;6.30;;;5.70;;
3979;SDS011;2004;52.452;13.120;2023-05-10T03:46:50;11.13;;;5.50;;
3979;SDS011;2004;52.452;13.120;2023-05-10T03:54:41;10.40;;;5.67;;
3979;SDS011;2004;52.452;13.120;2023-05-10T04:02:31;10.50;;;5.73;;
3979;SDS011;2004;52.452;13.120;2023-05-10T04:10:22;6.00;;;5.20;;
3979;SDS011;2004;52.452;13.120;2023-05-10T04:18:12;10.87;;;5.57;;
3979;SDS011;2004;52.452;13.120;2023-05-10T04:26:03;6.60;;;5.63;;
3979;SDS011;2004;52.452;13.120;2023-05-10T04:33:53;5.70;;;4.80;;
3979;SDS011;2004;52.452;13.120;2023-05-10T04:41:44;7.50;;;5.33;;
3979;SDS011;2004;52.452;13.120;2023-05-10T04:49:35;8.90;;;4.83;;
3979;SDS011;2004;52.452;13.120;2023-05-10T04:57:25;7.33;;;4.97;;
3979;SDS011;2004;52.452;13.120;2023-05-10T05:05:16;9.33;;;4.87;;
3979;SDS011;2004;52.452;13.120;2023-05-10T05:13:06;7.60;;;4.70;;
3979;SDS011;2004;52.452;13.120;2023-05-10T05:20:56;7.83;;;4.20;;
3979;SDS011;2004;52.452;13.120;2023-05-10T05:28:47;10.50;;;4.20;;
3979;SDS011;2004;52.452;13.120;2023-05-10T05:36:38;6.67;;;3.90;;
3979;SDS011;2004;52.452;13.120;2023-05-10T05:44:29;8.77;;;5.20;;
3979;SDS011;2004;52.452;13.120;2023-05-10T05:52:19;32.83;;;4.60;;
3979;SDS011;2004;52.452;13.120;2023-05-10T06:00:11;4.30;;;3.80;;
3979;SDS011;2004;52.452;13.120;2023-05-10T06:08:02;12.10;;;4.00;;
3979;SDS011;2004;52.452;13.120;2023-05-10T06:15:52;7.53;;;3.23;;
3979;SDS011;2004;52.452;13.120;2023-05-10T06:23:43;4.33;;;3.43;;
3979;SDS011;2004;52.452;13.120;2023-05-10T06:31:33;13.07;;;3.57;;
3979;SDS011;2004;52.452;13.120;2023-05-10T06:39:24;4.40;;;3.17;;
3979;SDS011;2004;52.452;13.120;2023-05-10T06:47:15;5.17;;;3.70;;
3979;SDS011;2004;52.452;13.120;2023-05-10T06:55:07;10.17;;;3.10;;
3979;SDS011;2004;52.452;13.120;2023-05-10T07:02:58;3.73;;;3.10;;
3979;SDS011;2004;52.452;13.120;2023-05-10T07:10:51;5.33;;;3.20;;
3979;SDS011;2004;52.452;13.120;2023-05-10T07:18:41;3.10;;;2.50;;
3979;SDS011;2004;52.452;13.120;2023-05-10T07:26:32;2.90;;;2.53;;
3979;SDS011;2004;52.452;13.120;2023-05-10T07:34:22;3.37;;;3.10;;
3979;SDS011;2004;52.452;13.120;2023-05-10T07:42:13;4.27;;;2.97;;
3979;SDS011;2004;52.452;13.120;2023-05-10T07:50:04;5.77;;;2.53;;
3979;SDS011;2004;52.452;13.120;2023-05-10T07:57:55;11.27;;;3.27;;
3979;SDS011;2004;52.452;13.120;2023-05-10T08:05:46;5.47;;;3.10;;
3979;SDS011;2004;52.452;13.120;2023-05-10T08:13:37;6.20;;;2.67;;
3979;SDS011;2004;52.452;13.120;2023-05-10T08:21:27;2.70;;;2.50;;
3979;SDS011;2004;52.452;13.120;2023-05-10T08:29:18;2.43;;;2.23;;
3979;SDS011;2004;52.452;13.120;2023-05-10T08:37:08;2.80;;;2.50;;
3979;SDS011;2004;52.452;13.120;2023-05-10T08:45:03;4.50;;;2.33;;
3979;SDS011;2004;52.452;13.120;2023-05-10T08:52:55;6.63;;;3.10;;
3979;SDS011;2004;52.452;13.120;2023-05-10T09:00:50;3.33;;;2.50;;
3979;SDS011;2004;52.452;13.120;2023-05-10T09:08:41;7.07;;;3.50;;
3979;SDS011;2004;52.452;13.120;2023-05-10T09:16:32;3.03;;;2.73;;
3979;SDS011;2004;52.452;13.120;2023-05-10T09:24:26;13.43;;;2.53;;
3979;SDS011;2004;52.452;13.120;2023-05-10T09:32:18;4.30;;;2.50;;
3979;SDS011;2004;52.452;13.120;2023-05-10T09:40:13;4.37;;;2.80;;
3979;SDS011;2004;52.452;13.120;2023-05-10T09:48:07;2.93;;;2.57;;
3979;SDS011;2004;52.452;13.120;2023-05-10T09:55:58;3.37;;;2.40;;
3979;SDS011;2004;52.452;13.120;2023-05-10T10:03:48;3.83;;;3.03;;
3979;SDS011;2004;52.452;13.120;2023-05-10T10:11:40;3.30;;;2.53;;
3979;SDS011;2004;52.452;13.120;2023-05-10T10:19:32;8.10;;;3.00;;
3979;SDS011;2004;52.452;13.120;2023-05-10T10:27:28;3.50;;;2.87;;
3979;SDS011;2004;52.452;13.120;2023-05-10T10:35:35;3.40;;;2.77;;
3979;SDS011;2004;52.452;13.120;2023-05-10T10:43:28;3.13;;;2.73;;
3979;SDS011;2004;52.452;13.120;2023-05-10T10:51:20;2.87;;;2.57;;
3979;SDS011;2004;52.452;13.120;2023-05-10T10:59:11;3.10;;;2.80;;
3979;SDS011;2004;52.452;13.120;2023-05-10T11:07:16;3.30;;;3.00;;
3979;SDS011;2004;52.452;13.120;2023-05-10T11:15:08;3.33;;;3.03;;
3979;SDS011;2004;52.452;13.120;2023-05-10T11:23:10;4.63;;;2.23;;
3979;SDS011;2004;52.452;13.120;2023-05-10T11:31:02;2.40;;;2.23;;
3979;SDS011;2004;52.452;13.120;2023-05-10T11:38:53;2.40;;;2.20;;
3979;SDS011;2004;52.452;13.120;2023-05-10T11:46:46;3.07;;;2.77;;
3979;SDS011;2004;52.452;13.120;2023-05-10T11:54:37;6.70;;;2.10;;
3979;SDS011;2004;52.452;13.120;2023-05-10T12:02:34;3.70;;;2.30;;
3979;SDS011;2004;52.452;13.120;2023-05-10T12:10:25;4.70;;;2.40;;
3979;SDS011;2004;52.452;13.120;2023-05-10T12:18:22;6.17;;;2.50;;
3979;SDS011;2004;52.452;13.120;2023-05-10T12:26:14;4.47;;;2.03;;
3979;SDS011;2004;52.452;13.120;2023-05-10T12:34:05;4.57;;;3.37;;
3979;SDS011;2004;52.452;13.120;2023-05-10T12:41:58;3.03;;;2.40;;
3979;SDS011;2004;52.452;13.120;2023-05-10T12:49:49;2.60;;;2.03;;
3979;SDS011;2004;52.452;13.120;2023-05-10T12:57:41;7.83;;;2.67;;
3979;SDS011;2004;52.452;13.120;2023-05-10T13:05:32;3.63;;;2.60;;
3979;SDS011;2004;52.452;13.120;2023-05-10T13:13:23;4.47;;;2.80;;
3979;SDS011;2004;52.452;13.120;2023-05-10T13:21:14;5.77;;;2.60;;
3979;SDS011;2004;52.452;13.120;2023-05-10T13:29:05;2.13;;;2.03;;
3979;SDS011;2004;52.452;13.120;2023-05-10T13:36:56;3.20;;;2.50;;
3979;SDS011;2004;52.452;13.120;2023-05-10T13:44:47;5.80;;;2.80;;
3979;SDS011;2004;52.452;13.120;2023-05-10T13:52:37;3.10;;;2.80;;
3979;SDS011;2004;52.452;13.120;2023-05-10T14:00:28;4.27;;;3.00;;
3979;SDS011;2004;52.452;13.120;2023-05-10T14:08:18;4.03;;;2.70;;
3979;SDS011;2004;52.452;13.120;2023-05-10T14:16:10;9.60;;;2.50;;
3979;SDS011;2004;52.452;13.120;2023-05-10T14:24:03;3.90;;;2.50;;
3979;SDS011;2004;52.452;13.120;2023-05-10T14:31:54;4.33;;;2.40;;
3979;SDS011;2004;52.452;13.120;2023-05-10T14:39:45;2.40;;;2.20;;
3979;SDS011;2004;52.452;13.120;2023-05-10T14:47:36;2.50;;;2.30;;
3979;SDS011;2004;52.452;13.120;2023-05-10T14:55:27;7.70;;;2.20;;
3979;SDS011;2004;52.452;13.120;2023-05-10T15:03:18;4.90;;;2.53;;
3979;SDS011;2004;52.452;13.120;2023-05-10T15:11:08;3.63;;;2.50;;
3979;SDS011;2004;52.452;13.120;2023-05-10T15:18:59;4.10;;;2.60;;
3979;SDS011;2004;52.452;13.120;2023-05-10T15:26:50;2.88;;;2.67;;
3979;SDS011;2004;52.452;13.120;2023-05-10T15:34:41;7.90;;;4.30;;
3979;SDS011;2004;52.452;13.120;2023-05-10T15:42:32;8.63;;;4.47;;
3979;SDS011;2004;52.452;13.120;2023-05-10T15:50:22;6.13;;;4.50;;
3979;SDS011;2004;52.452;13.120;2023-05-10T15:58:13;4.57;;;4.17;;
3979;SDS011;2004;52.452;13.120;2023-05-10T16:06:03;4.60;;;4.20;;
3979;SDS011;2004;52.452;13.120;2023-05-10T16:13:54;7.10;;;5.20;;
3979;SDS011;2004;52.452;13.120;2023-05-10T16:21:45;9.73;;;5.53;;
3979;SDS011;2004;52.452;13.120;2023-05-10T16:29:36;6.97;;;5.23;;
3979;SDS011;2004;52.452;13.120;2023-05-10T16:37:27;11.60;;;4.93;;
3979;SDS011;2004;52.452;13.120;2023-05-10T16:45:17;13.07;;;5.63;;
3979;SDS011;2004;52.452;13.120;2023-05-10T16:53:08;5.47;;;4.97;;
3979;SDS011;2004;52.452;13.120;2023-05-10T17:01:00;8.47;;;5.50;;
3979;SDS011;2004;52.452;13.120;2023-05-10T17:08:51;5.07;;;4.53;;
3979;SDS011;2004;52.452;13.120;2023-05-10T17:16:41;7.17;;;5.13;;
3979;SDS011;2004;52.452;13.120;2023-05-10T17:24:32;4.80;;;4.27;;
3979;SDS011;2004;52.452;13.120;2023-05-10T17:32:23;8.37;;;5.07;;
3979;SDS011;2004;52.452;13.120;2023-05-10T17:40:13;6.37;;;5.40;;
3979;SDS011;2004;52.452;13.120;2023-05-10T17:48:04;9.33;;;4.70;;
3979;SDS011;2004;52.452;13.120;2023-05-10T17:55:55;12.90;;;4.60;;
3979;SDS011;2004;52.452;13.120;2023-05-10T18:03:51;8.47;;;4.73;;
3979;SDS011;2004;52.452;13.120;2023-05-10T18:11:42;12.47;;;5.10;;
3979;SDS011;2004;52.452;13.120;2023-05-10T18:19:32;5.03;;;4.53;;
3979;SDS011;2004;52.452;13.120;2023-05-10T18:27:23;6.60;;;4.00;;
3979;SDS011;2004;52.452;13.120;2023-05-10T18:35:13;11.50;;;4.80;;
3979;SDS011;2004;52.452;13.120;2023-05-10T18:43:05;8.40;;;4.70;;
3979;SDS011;2004;52.452;13.120;2023-05-10T18:50:55;5.00;;;4.50;;
3979;SDS011;2004;52.452;13.120;2023-05-10T18:58:46;11.90;;;4.63;;
3979;SDS011;2004;52.452;13.120;2023-05-10T19:06:36;6.80;;;4.97;;
3979;SDS011;2004;52.452;13.120;2023-05-10T19:14:27;8.10;;;5.70;;
3979;SDS011;2004;52.452;13.120;2023-05-10T19:22:17;11.03;;;6.30;;
3979;SDS011;2004;52.452;13.120;2023-05-10T19:30:08;8.10;;;5.40;;
3979;SDS011;2004;52.452;13.120;2023-05-10T19:37:59;6.97;;;5.00;;
3979;SDS011;2004;52.452;13.120;2023-05-10T19:45:49;6.43;;;5.20;;
3979;SDS011;2004;52.452;13.120;2023-05-10T19:53:40;6.93;;;5.50;;
3979;SDS011;2004;52.452;13.120;2023-05-10T20:01:33;7.20;;;5.03;;
3979;SDS011;2004;52.452;13.120;2023-05-10T20:09:25;8.27;;;5.60;;
3979;SDS011;2004;52.452;13.120;2023-05-10T20:17:17;6.70;;;5.70;;
3979;SDS011;2004;52.452;13.120;2023-05-10T20:25:07;7.70;;;6.03;;
3979;SDS011;2004;52.452;13.120;2023-05-10T20:32:58;10.40;;;5.90;;
3979;SDS011;2004;52.452;13.120;2023-05-10T20:40:49;8.23;;;5.47;;
3979;SDS011;2004;52.452;13.120;2023-05-10T20:48:39;12.23;;;5.47;;
3979;SDS011;2004;52.452;13.120;2023-05-10T20:56:31;6.10;;;5.50;;
3979;SDS011;2004;52.452;13.120;2023-05-10T21:04:22;7.47;;;5.60;;
3979;SDS011;2004;52.452;13.120;2023-05-10T21:12:15;8.13;;;5.60;;
3979;SDS011;2004;52.452;13.120;2023-05-10T21:20:06;7.40;;;5.07;;
3979;SDS011;2004;52.452;13.120;2023-05-10T21:27:57;6.97;;;5.50;;
3979;SDS011;2004;52.452;13.120;2023-05-10T21:35:47;5.60;;;4.70;;
3979;SDS011;2004;52.452;13.120;2023-05-10T21:43:38;5.80;;;4.60;;
3979;SDS011;2004;52.452;13.120;2023-05-10T21:51:28;5.70;;;5.07;;
3979;SDS011;2004;52.452;13.120;2023-05-10T21:59:19;5.17;;;4.63;;
3979;SDS011;2004;52.452;13.120;2023-05-10T22:07:10;8.83;;;5.50;;
3979;SDS011;2004;52.452;13.120;2023-05-10T22:15:01;5.80;;;5.20;;
3979;SDS011;2004;52.452;13.120;2023-05-10T22:22:53;6.90;;;4.90;;
3979;SDS011;2004;52.452;13.120;2023-05-10T22:30:44;4.73;;;4.30;;
3979;SDS011;2004;52.452;13.120;2023-05-10T22:38:35;4.83;;;3.93;;
3979;SDS011;2004;52.452;13.120;2023-05-10T22:46:26;4.27;;;3.93;;
3979;SDS011;2004;52.452;13.120;2023-05-10T22:54:18;4.00;;;3.70;;
3979;SDS011;2004;52.452;13.120;2023-05-10T23:02:08;10.63;;;4.83;;
3979;SDS011;2004;52.452;13.120;2023-05-10T23:10:00;6.53;;;5.53;;
3979;SDS011;2004;52.452;13.120;2023-05-10T23:17:51;8.20;;;6.03;;
3979;SDS011;2004;52.452;13.120;2023-05-10T23:25:41;5.73;;;5.20;;
3979;SDS011;2004;52.452;13.120;2023-05-10T23:33:32;7.40;;;5.30;;
3979;SDS011;2004;52.452;13.120;2023-05-10T23:41:22;7.27;;;5.33;;
3979;SDS011;2004;52.452;13.120;2023-05-10T23:49:16;6.23;;;5.63;;
3979;SDS011;2004;52.452;13.120;2023-05-10T23:57:07;17.50;;;6.13;;
